International Virtual Aviation Organisation

Russian Federation and Kazakhstan MCD

 

Карточка аэропорта UAII

Внимание!
Информация на этой странице в стадии наполнения.
Если вы не увидели какой-то информации, или заметили неточность - пожалуйста сообщите нам!
Спасибо!
Команда RU-STAFF
Название аэропортаШымкент
Название аэропорта (англ.)Shymkent
Превышение1389 ft. (423.4 m.)
Координаты42°21.348', 69°28.734'
Высота перехода5000
Эшелон переходаFL70
Коды ответчика3430-3437, 3530-3537
Зона ОрВДШымкент РПИ (UAII)
Данные METARUAII 242300Z 11002MPS 5000 BR NSC 06/04 Q1018 R10/0///70 NOSIG RMK QFE728/0971
Проноз погоды (TAF)UAII 241700Z 2418/2518 07005MPS 3000 BR SCT040 BKN100 TX20/2509Z TN03/2501Z TEMPO 2418/2503 12003MPS 0500 FG VV002 TEMPO 2503/2506 12003MPS 5000 FU SCT050 OVC100 TEMPO 2506/2515 32005MPS 8000 NSW BKN050
NOTAMshow/hide NOTAM
AWOS   TABLE

Информация о ВПП

ВПП Длина ВПП (м.) Покрытие Курс ВПП Частота ILS
103300Железобетон106111.7
283300Железобетон286110.3

Диспетчерские позиции




Спутниковое изображение